sensor_id;sensor_type;location;lat;lon;timestamp;P1;durP1;ratioP1;P2;durP2;ratioP2
65863;SDS011;52639;51.180;20.460;2023-08-30T00:01:24;52.28;;;19.15;;
65863;SDS011;52639;51.180;20.460;2023-08-30T00:05:27;63.45;;;23.88;;
65863;SDS011;52639;51.180;20.460;2023-08-30T00:09:31;76.88;;;29.80;;
65863;SDS011;52639;51.180;20.460;2023-08-30T00:13:34;66.88;;;28.20;;
65863;SDS011;52639;51.180;20.460;2023-08-30T00:17:37;60.88;;;26.50;;
65863;SDS011;52639;51.180;20.460;2023-08-30T00:21:39;55.30;;;25.75;;
65863;SDS011;52639;51.180;20.460;2023-08-30T00:25:45;53.88;;;25.63;;
65863;SDS011;52639;51.180;20.460;2023-08-30T00:29:48;52.45;;;23.02;;
65863;SDS011;52639;51.180;20.460;2023-08-30T00:33:51;44.80;;;22.77;;
65863;SDS011;52639;51.180;20.460;2023-08-30T00:37:54;46.53;;;23.20;;
65863;SDS011;52639;51.180;20.460;2023-08-30T00:42:05;49.75;;;22.52;;
65863;SDS011;52639;51.180;20.460;2023-08-30T00:46:09;56.72;;;24.70;;
65863;SDS011;52639;51.180;20.460;2023-08-30T00:50:12;49.90;;;24.25;;
65863;SDS011;52639;51.180;20.460;2023-08-30T00:54:17;57.22;;;26.02;;
65863;SDS011;52639;51.180;20.460;2023-08-30T00:58:24;54.88;;;22.55;;
65863;SDS011;52639;51.180;20.460;2023-08-30T01:02:28;42.63;;;22.02;;
65863;SDS011;52639;51.180;20.460;2023-08-30T01:06:31;47.92;;;23.00;;
65863;SDS011;52639;51.180;20.460;2023-08-30T01:10:40;45.40;;;21.98;;
65863;SDS011;52639;51.180;20.460;2023-08-30T01:14:53;48.40;;;20.95;;
65863;SDS011;52639;51.180;20.460;2023-08-30T01:19:04;38.10;;;19.50;;
65863;SDS011;52639;51.180;20.460;2023-08-30T01:23:22;44.00;;;20.85;;
65863;SDS011;52639;51.180;20.460;2023-08-30T01:27:34;44.17;;;21.92;;
65863;SDS011;52639;51.180;20.460;2023-08-30T01:31:38;54.22;;;22.70;;
65863;SDS011;52639;51.180;20.460;2023-08-30T01:35:42;44.28;;;20.95;;
65863;SDS011;52639;51.180;20.460;2023-08-30T01:39:47;41.90;;;20.20;;
65863;SDS011;52639;51.180;20.460;2023-08-30T01:43:53;35.05;;;20.08;;
65863;SDS011;52639;51.180;20.460;2023-08-30T01:47:58;36.88;;;18.73;;
65863;SDS011;52639;51.180;20.460;2023-08-30T01:52:00;35.38;;;19.23;;
65863;SDS011;52639;51.180;20.460;2023-08-30T01:56:04;39.13;;;19.85;;
65863;SDS011;52639;51.180;20.460;2023-08-30T02:00:09;34.13;;;17.55;;
65863;SDS011;52639;51.180;20.460;2023-08-30T02:04:12;32.40;;;17.55;;
65863;SDS011;52639;51.180;20.460;2023-08-30T02:08:16;36.15;;;17.98;;
65863;SDS011;52639;51.180;20.460;2023-08-30T02:12:19;36.75;;;18.38;;
65863;SDS011;52639;51.180;20.460;2023-08-30T02:16:27;42.00;;;18.65;;
65863;SDS011;52639;51.180;20.460;2023-08-30T02:20:30;34.65;;;17.35;;
65863;SDS011;52639;51.180;20.460;2023-08-30T02:24:34;43.50;;;19.40;;
65863;SDS011;52639;51.180;20.460;2023-08-30T02:28:37;36.22;;;17.95;;
65863;SDS011;52639;51.180;20.460;2023-08-30T02:32:43;36.03;;;18.02;;
65863;SDS011;52639;51.180;20.460;2023-08-30T02:36:47;33.58;;;18.23;;
65863;SDS011;52639;51.180;20.460;2023-08-30T02:40:50;32.22;;;17.33;;
65863;SDS011;52639;51.180;20.460;2023-08-30T02:44:53;33.17;;;17.42;;
65863;SDS011;52639;51.180;20.460;2023-08-30T02:48:59;39.70;;;18.27;;
65863;SDS011;52639;51.180;20.460;2023-08-30T02:53:03;35.95;;;17.70;;
65863;SDS011;52639;51.180;20.460;2023-08-30T02:57:09;33.92;;;17.42;;
65863;SDS011;52639;51.180;20.460;2023-08-30T03:01:12;35.03;;;18.40;;
65863;SDS011;52639;51.180;20.460;2023-08-30T03:05:17;28.88;;;15.93;;
65863;SDS011;52639;51.180;20.460;2023-08-30T03:09:20;28.48;;;15.48;;
65863;SDS011;52639;51.180;20.460;2023-08-30T03:13:23;29.90;;;16.60;;
65863;SDS011;52639;51.180;20.460;2023-08-30T03:17:26;29.40;;;16.27;;
65863;SDS011;52639;51.180;20.460;2023-08-30T03:21:31;28.35;;;17.55;;
65863;SDS011;52639;51.180;20.460;2023-08-30T03:25:34;26.33;;;16.40;;
65863;SDS011;52639;51.180;20.460;2023-08-30T03:29:37;33.35;;;17.88;;
65863;SDS011;52639;51.180;20.460;2023-08-30T03:33:41;35.10;;;18.67;;
65863;SDS011;52639;51.180;20.460;2023-08-30T03:37:46;32.83;;;17.83;;
65863;SDS011;52639;51.180;20.460;2023-08-30T03:41:49;29.35;;;18.35;;
65863;SDS011;52639;51.180;20.460;2023-08-30T03:45:53;36.38;;;19.63;;
65863;SDS011;52639;51.180;20.460;2023-08-30T03:49:55;38.30;;;19.65;;
65863;SDS011;52639;51.180;20.460;2023-08-30T03:54:01;39.33;;;19.83;;
65863;SDS011;52639;51.180;20.460;2023-08-30T03:58:04;39.50;;;19.42;;
65863;SDS011;52639;51.180;20.460;2023-08-30T04:02:09;39.55;;;19.95;;
65863;SDS011;52639;51.180;20.460;2023-08-30T04:06:12;34.22;;;18.38;;
65863;SDS011;52639;51.180;20.460;2023-08-30T04:10:21;34.25;;;18.50;;
65863;SDS011;52639;51.180;20.460;2023-08-30T04:14:24;31.42;;;17.45;;
65863;SDS011;52639;51.180;20.460;2023-08-30T04:18:28;37.65;;;19.05;;
65863;SDS011;52639;51.180;20.460;2023-08-30T04:22:31;31.58;;;18.33;;
65863;SDS011;52639;51.180;20.460;2023-08-30T04:26:42;38.53;;;19.02;;
65863;SDS011;52639;51.180;20.460;2023-08-30T04:30:45;41.30;;;18.92;;
65863;SDS011;52639;51.180;20.460;2023-08-30T04:34:49;39.65;;;19.17;;
65863;SDS011;52639;51.180;20.460;2023-08-30T04:38:52;40.25;;;20.23;;
65863;SDS011;52639;51.180;20.460;2023-08-30T05:04:00;26.60;;;15.38;;
65863;SDS011;52639;51.180;20.460;2023-08-30T05:18:49;26.75;;;15.60;;
65863;SDS011;52639;51.180;20.460;2023-08-30T05:22:54;28.98;;;17.27;;
65863;SDS011;52639;51.180;20.460;2023-08-30T05:26:57;26.90;;;15.45;;
65863;SDS011;52639;51.180;20.460;2023-08-30T05:31:00;25.70;;;15.60;;
65863;SDS011;52639;51.180;20.460;2023-08-30T05:35:07;26.67;;;14.32;;
65863;SDS011;52639;51.180;20.460;2023-08-30T05:39:22;24.38;;;14.02;;
65863;SDS011;52639;51.180;20.460;2023-08-30T05:43:35;25.30;;;14.85;;
65863;SDS011;52639;51.180;20.460;2023-08-30T05:47:38;26.05;;;16.08;;
65863;SDS011;52639;51.180;20.460;2023-08-30T05:51:41;21.52;;;13.77;;
65863;SDS011;52639;51.180;20.460;2023-08-30T05:55:48;30.20;;;14.35;;
65863;SDS011;52639;51.180;20.460;2023-08-30T05:59:51;24.23;;;14.27;;
65863;SDS011;52639;51.180;20.460;2023-08-30T06:03:54;20.83;;;13.13;;
65863;SDS011;52639;51.180;20.460;2023-08-30T06:07:58;20.05;;;13.27;;
65863;SDS011;52639;51.180;20.460;2023-08-30T06:12:06;21.17;;;13.63;;
65863;SDS011;52639;51.180;20.460;2023-08-30T06:16:09;18.52;;;13.07;;
65863;SDS011;52639;51.180;20.460;2023-08-30T06:20:12;20.25;;;13.80;;
65863;SDS011;52639;51.180;20.460;2023-08-30T06:24:15;17.85;;;12.63;;
65863;SDS011;52639;51.180;20.460;2023-08-30T06:28:22;13.48;;;9.82;;
65863;SDS011;52639;51.180;20.460;2023-08-30T06:32:26;14.32;;;10.90;;
65863;SDS011;52639;51.180;20.460;2023-08-30T06:36:29;12.32;;;8.85;;
65863;SDS011;52639;51.180;20.460;2023-08-30T06:40:32;13.45;;;10.30;;
65863;SDS011;52639;51.180;20.460;2023-08-30T06:44:37;13.15;;;9.50;;
65863;SDS011;52639;51.180;20.460;2023-08-30T06:48:41;15.43;;;9.45;;
65863;SDS011;52639;51.180;20.460;2023-08-30T06:52:44;13.60;;;9.63;;
65863;SDS011;52639;51.180;20.460;2023-08-30T06:57:02;14.05;;;9.88;;
65863;SDS011;52639;51.180;20.460;2023-08-30T07:01:09;15.23;;;10.60;;
65863;SDS011;52639;51.180;20.460;2023-08-30T07:05:13;16.45;;;11.05;;
65863;SDS011;52639;51.180;20.460;2023-08-30T07:09:16;14.85;;;9.93;;
65863;SDS011;52639;51.180;20.460;2023-08-30T07:13:20;14.50;;;9.82;;
65863;SDS011;52639;51.180;20.460;2023-08-30T07:17:25;16.50;;;9.95;;
65863;SDS011;52639;51.180;20.460;2023-08-30T07:21:28;15.95;;;9.20;;
65863;SDS011;52639;51.180;20.460;2023-08-30T07:25:31;13.43;;;7.95;;
65863;SDS011;52639;51.180;20.460;2023-08-30T07:29:34;13.30;;;7.63;;
65863;SDS011;52639;51.180;20.460;2023-08-30T07:33:41;11.65;;;6.68;;
65863;SDS011;52639;51.180;20.460;2023-08-30T07:37:45;10.20;;;5.63;;
65863;SDS011;52639;51.180;20.460;2023-08-30T07:41:48;7.93;;;5.18;;
65863;SDS011;52639;51.180;20.460;2023-08-30T07:45:51;8.77;;;5.20;;
65863;SDS011;52639;51.180;20.460;2023-08-30T07:49:59;8.88;;;5.80;;
65863;SDS011;52639;51.180;20.460;2023-08-30T07:54:02;6.60;;;4.68;;
65863;SDS011;52639;51.180;20.460;2023-08-30T07:58:06;6.78;;;4.50;;
65863;SDS011;52639;51.180;20.460;2023-08-30T08:02:14;9.52;;;4.97;;
65863;SDS011;52639;51.180;20.460;2023-08-30T08:06:19;6.82;;;3.67;;
65863;SDS011;52639;51.180;20.460;2023-08-30T08:10:23;5.53;;;3.50;;
65863;SDS011;52639;51.180;20.460;2023-08-30T08:14:29;5.93;;;3.95;;
65863;SDS011;52639;51.180;20.460;2023-08-30T08:18:32;4.40;;;3.17;;
65863;SDS011;52639;51.180;20.460;2023-08-30T08:22:37;6.35;;;3.30;;
65863;SDS011;52639;51.180;20.460;2023-08-30T08:26:40;6.97;;;3.13;;
65863;SDS011;52639;51.180;20.460;2023-08-30T08:30:44;4.07;;;2.70;;
65863;SDS011;52639;51.180;20.460;2023-08-30T08:34:52;3.63;;;2.60;;
65863;SDS011;52639;51.180;20.460;2023-08-30T08:39:02;5.50;;;2.60;;
65863;SDS011;52639;51.180;20.460;2023-08-30T08:43:06;3.22;;;2.50;;
65863;SDS011;52639;51.180;20.460;2023-08-30T08:47:36;3.72;;;2.55;;
65863;SDS011;52639;51.180;20.460;2023-08-30T08:56:03;4.15;;;2.60;;
65863;SDS011;52639;51.180;20.460;2023-08-30T09:00:09;10.07;;;3.40;;
65863;SDS011;52639;51.180;20.460;2023-08-30T09:04:13;10.07;;;3.28;;
65863;SDS011;52639;51.180;20.460;2023-08-30T09:08:21;14.93;;;3.10;;
65863;SDS011;52639;51.180;20.460;2023-08-30T09:12:27;5.63;;;2.08;;
65863;SDS011;52639;51.180;20.460;2023-08-30T09:16:35;6.85;;;2.70;;
65863;SDS011;52639;51.180;20.460;2023-08-30T09:20:39;4.10;;;2.42;;
65863;SDS011;52639;51.180;20.460;2023-08-30T09:24:42;4.30;;;2.42;;
65863;SDS011;52639;51.180;20.460;2023-08-30T09:28:47;6.53;;;2.90;;
65863;SDS011;52639;51.180;20.460;2023-08-30T09:32:49;5.38;;;3.10;;
65863;SDS011;52639;51.180;20.460;2023-08-30T09:36:52;4.90;;;3.40;;
65863;SDS011;52639;51.180;20.460;2023-08-30T09:41:03;6.43;;;3.20;;
65863;SDS011;52639;51.180;20.460;2023-08-30T09:45:18;4.10;;;2.50;;
65863;SDS011;52639;51.180;20.460;2023-08-30T09:49:21;4.90;;;2.38;;
65863;SDS011;52639;51.180;20.460;2023-08-30T09:53:26;7.55;;;2.83;;
65863;SDS011;52639;51.180;20.460;2023-08-30T09:57:32;5.32;;;2.30;;
65863;SDS011;52639;51.180;20.460;2023-08-30T10:01:37;4.85;;;2.50;;
65863;SDS011;52639;51.180;20.460;2023-08-30T10:05:40;11.18;;;3.13;;
65863;SDS011;52639;51.180;20.460;2023-08-30T10:09:44;8.20;;;3.65;;
65863;SDS011;52639;51.180;20.460;2023-08-30T10:13:48;11.60;;;3.63;;
65863;SDS011;52639;51.180;20.460;2023-08-30T10:17:56;4.30;;;2.60;;
65863;SDS011;52639;51.180;20.460;2023-08-30T10:22:02;5.03;;;2.60;;
65863;SDS011;52639;51.180;20.460;2023-08-30T10:26:11;4.25;;;2.58;;
65863;SDS011;52639;51.180;20.460;2023-08-30T10:30:18;3.15;;;1.88;;
65863;SDS011;52639;51.180;20.460;2023-08-30T10:34:31;3.13;;;2.05;;
65863;SDS011;52639;51.180;20.460;2023-08-30T10:38:35;3.08;;;1.80;;
65863;SDS011;52639;51.180;20.460;2023-08-30T10:42:41;5.97;;;2.70;;
65863;SDS011;52639;51.180;20.460;2023-08-30T10:46:44;5.13;;;2.50;;
65863;SDS011;52639;51.180;20.460;2023-08-30T10:50:56;5.00;;;2.67;;
65863;SDS011;52639;51.180;20.460;2023-08-30T10:55:07;7.53;;;2.40;;
65863;SDS011;52639;51.180;20.460;2023-08-30T10:59:17;7.57;;;2.97;;
65863;SDS011;52639;51.180;20.460;2023-08-30T11:03:23;11.65;;;3.60;;
65863;SDS011;52639;51.180;20.460;2023-08-30T11:07:29;7.20;;;3.00;;
65863;SDS011;52639;51.180;20.460;2023-08-30T11:11:32;5.53;;;2.50;;
65863;SDS011;52639;51.180;20.460;2023-08-30T11:15:37;6.65;;;2.67;;
65863;SDS011;52639;51.180;20.460;2023-08-30T11:19:40;5.13;;;2.80;;
65863;SDS011;52639;51.180;20.460;2023-08-30T11:23:45;3.40;;;2.20;;
65863;SDS011;52639;51.180;20.460;2023-08-30T11:27:48;3.33;;;2.40;;
65863;SDS011;52639;51.180;20.460;2023-08-30T11:31:51;4.55;;;2.80;;
65863;SDS011;52639;51.180;20.460;2023-08-30T11:35:53;4.13;;;2.60;;
65863;SDS011;52639;51.180;20.460;2023-08-30T11:40:00;6.13;;;2.72;;
65863;SDS011;52639;51.180;20.460;2023-08-30T11:44:05;4.00;;;2.60;;
65863;SDS011;52639;51.180;20.460;2023-08-30T11:48:08;4.53;;;2.80;;
65863;SDS011;52639;51.180;20.460;2023-08-30T11:52:11;5.07;;;2.90;;
65863;SDS011;52639;51.180;20.460;2023-08-30T11:56:15;4.13;;;2.67;;
65863;SDS011;52639;51.180;20.460;2023-08-30T12:00:20;5.60;;;2.70;;
65863;SDS011;52639;51.180;20.460;2023-08-30T12:04:23;5.10;;;2.13;;
65863;SDS011;52639;51.180;20.460;2023-08-30T12:08:26;2.92;;;1.90;;
65863;SDS011;52639;51.180;20.460;2023-08-30T12:12:31;3.88;;;1.98;;
65863;SDS011;52639;51.180;20.460;2023-08-30T12:16:37;4.13;;;2.40;;
65863;SDS011;52639;51.180;20.460;2023-08-30T12:20:52;3.45;;;2.28;;
65863;SDS011;52639;51.180;20.460;2023-08-30T12:24:55;3.50;;;2.47;;
65863;SDS011;52639;51.180;20.460;2023-08-30T12:29:02;7.32;;;3.28;;
65863;SDS011;52639;51.180;20.460;2023-08-30T12:33:06;7.43;;;3.33;;
65863;SDS011;52639;51.180;20.460;2023-08-30T12:37:09;9.27;;;4.15;;
65863;SDS011;52639;51.180;20.460;2023-08-30T12:41:12;5.95;;;3.58;;
65863;SDS011;52639;51.180;20.460;2023-08-30T12:45:19;6.15;;;3.55;;
65863;SDS011;52639;51.180;20.460;2023-08-30T12:49:23;6.47;;;3.40;;
65863;SDS011;52639;51.180;20.460;2023-08-30T12:53:26;4.90;;;2.95;;
65863;SDS011;52639;51.180;20.460;2023-08-30T12:57:29;6.50;;;3.80;;
65863;SDS011;52639;51.180;20.460;2023-08-30T13:01:33;7.28;;;3.97;;
65863;SDS011;52639;51.180;20.460;2023-08-30T13:05:36;5.72;;;3.60;;
65863;SDS011;52639;51.180;20.460;2023-08-30T13:09:39;6.20;;;3.50;;
65863;SDS011;52639;51.180;20.460;2023-08-30T13:13:42;7.60;;;4.10;;
65863;SDS011;52639;51.180;20.460;2023-08-30T13:17:47;6.18;;;3.80;;
65863;SDS011;52639;51.180;20.460;2023-08-30T13:21:50;5.00;;;3.42;;
65863;SDS011;52639;51.180;20.460;2023-08-30T13:25:54;6.03;;;2.92;;
65863;SDS011;52639;51.180;20.460;2023-08-30T13:29:57;4.75;;;2.58;;
65863;SDS011;52639;51.180;20.460;2023-08-30T13:34:03;4.45;;;2.60;;
65863;SDS011;52639;51.180;20.460;2023-08-30T13:38:06;7.07;;;3.25;;
65863;SDS011;52639;51.180;20.460;2023-08-30T13:42:10;7.07;;;3.50;;
65863;SDS011;52639;51.180;20.460;2023-08-30T13:46:13;4.80;;;3.00;;
65863;SDS011;52639;51.180;20.460;2023-08-30T13:50:17;5.78;;;3.10;;
65863;SDS011;52639;51.180;20.460;2023-08-30T13:54:25;4.50;;;2.88;;
65863;SDS011;52639;51.180;20.460;2023-08-30T13:58:30;4.13;;;2.95;;
65863;SDS011;52639;51.180;20.460;2023-08-30T14:02:34;5.28;;;2.92;;
65863;SDS011;52639;51.180;20.460;2023-08-30T14:06:42;5.20;;;3.20;;
65863;SDS011;52639;51.180;20.460;2023-08-30T14:10:46;5.80;;;2.97;;
65863;SDS011;52639;51.180;20.460;2023-08-30T14:14:49;7.45;;;3.60;;
65863;SDS011;52639;51.180;20.460;2023-08-30T14:18:53;6.50;;;4.00;;
65863;SDS011;52639;51.180;20.460;2023-08-30T14:22:57;7.78;;;4.03;;
65863;SDS011;52639;51.180;20.460;2023-08-30T14:27:00;7.95;;;4.03;;
65863;SDS011;52639;51.180;20.460;2023-08-30T14:31:07;10.27;;;4.28;;
65863;SDS011;52639;51.180;20.460;2023-08-30T14:35:10;5.22;;;3.60;;
65863;SDS011;52639;51.180;20.460;2023-08-30T14:39:15;8.00;;;3.90;;
65863;SDS011;52639;51.180;20.460;2023-08-30T14:43:18;9.23;;;3.50;;
65863;SDS011;52639;51.180;20.460;2023-08-30T14:47:41;5.82;;;3.30;;
65863;SDS011;52639;51.180;20.460;2023-08-30T14:51:45;8.73;;;4.03;;
65863;SDS011;52639;51.180;20.460;2023-08-30T14:55:50;7.88;;;3.88;;
65863;SDS011;52639;51.180;20.460;2023-08-30T14:59:54;5.60;;;3.55;;
65863;SDS011;52639;51.180;20.460;2023-08-30T15:03:57;7.18;;;3.30;;
65863;SDS011;52639;51.180;20.460;2023-08-30T15:08:02;5.15;;;3.28;;
65863;SDS011;52639;51.180;20.460;2023-08-30T15:12:08;9.25;;;3.20;;
65863;SDS011;52639;51.180;20.460;2023-08-30T15:16:12;5.15;;;2.90;;
65863;SDS011;52639;51.180;20.460;2023-08-30T15:20:16;7.60;;;3.00;;
65863;SDS011;52639;51.180;20.460;2023-08-30T15:24:19;4.47;;;2.85;;
65863;SDS011;52639;51.180;20.460;2023-08-30T15:28:27;6.68;;;3.70;;
65863;SDS011;52639;51.180;20.460;2023-08-30T15:32:31;4.97;;;3.08;;
65863;SDS011;52639;51.180;20.460;2023-08-30T15:36:34;5.78;;;3.10;;
65863;SDS011;52639;51.180;20.460;2023-08-30T15:40:38;4.68;;;2.58;;
65863;SDS011;52639;51.180;20.460;2023-08-30T15:44:43;5.70;;;3.30;;
65863;SDS011;52639;51.180;20.460;2023-08-30T15:48:47;4.13;;;2.80;;
65863;SDS011;52639;51.180;20.460;2023-08-30T15:52:50;5.38;;;2.67;;
65863;SDS011;52639;51.180;20.460;2023-08-30T15:56:55;8.15;;;2.75;;
65863;SDS011;52639;51.180;20.460;2023-08-30T16:01:03;7.25;;;3.35;;
65863;SDS011;52639;51.180;20.460;2023-08-30T16:05:07;5.85;;;3.40;;
65863;SDS011;52639;51.180;20.460;2023-08-30T16:09:10;5.43;;;3.38;;
65863;SDS011;52639;51.180;20.460;2023-08-30T16:13:14;9.10;;;3.58;;
65863;SDS011;52639;51.180;20.460;2023-08-30T16:17:21;8.52;;;3.92;;
65863;SDS011;52639;51.180;20.460;2023-08-30T16:21:25;7.72;;;4.88;;
65863;SDS011;52639;51.180;20.460;2023-08-30T16:25:30;7.28;;;4.18;;
65863;SDS011;52639;51.180;20.460;2023-08-30T16:29:34;9.65;;;5.97;;
65863;SDS011;52639;51.180;20.460;2023-08-30T16:33:42;9.45;;;4.97;;
65863;SDS011;52639;51.180;20.460;2023-08-30T16:37:46;11.15;;;4.97;;
65863;SDS011;52639;51.180;20.460;2023-08-30T16:41:53;5.47;;;3.40;;
65863;SDS011;52639;51.180;20.460;2023-08-30T16:45:58;10.50;;;4.57;;
65863;SDS011;52639;51.180;20.460;2023-08-30T16:50:04;7.25;;;4.10;;
65863;SDS011;52639;51.180;20.460;2023-08-30T16:54:11;12.13;;;4.30;;
65863;SDS011;52639;51.180;20.460;2023-08-30T16:58:14;25.92;;;17.35;;
65863;SDS011;52639;51.180;20.460;2023-08-30T17:02:19;13.10;;;6.50;;
65863;SDS011;52639;51.180;20.460;2023-08-30T17:06:27;8.20;;;4.90;;
65863;SDS011;52639;51.180;20.460;2023-08-30T17:10:31;8.43;;;5.30;;
65863;SDS011;52639;51.180;20.460;2023-08-30T17:14:35;13.45;;;7.38;;
65863;SDS011;52639;51.180;20.460;2023-08-30T17:18:40;17.83;;;8.45;;
65863;SDS011;52639;51.180;20.460;2023-08-30T17:22:47;22.60;;;10.80;;
65863;SDS011;52639;51.180;20.460;2023-08-30T17:26:54;12.80;;;7.30;;
65863;SDS011;52639;51.180;20.460;2023-08-30T17:31:00;15.13;;;7.78;;
65863;SDS011;52639;51.180;20.460;2023-08-30T17:35:04;13.27;;;6.32;;
65863;SDS011;52639;51.180;20.460;2023-08-30T17:39:11;10.77;;;5.85;;
65863;SDS011;52639;51.180;20.460;2023-08-30T17:43:17;11.77;;;6.30;;
65863;SDS011;52639;51.180;20.460;2023-08-30T17:47:24;9.40;;;5.32;;
65863;SDS011;52639;51.180;20.460;2023-08-30T17:51:29;9.43;;;5.43;;
65863;SDS011;52639;51.180;20.460;2023-08-30T17:55:35;12.88;;;6.75;;
65863;SDS011;52639;51.180;20.460;2023-08-30T17:59:41;15.52;;;7.68;;
65863;SDS011;52639;51.180;20.460;2023-08-30T18:03:48;15.80;;;7.30;;
65863;SDS011;52639;51.180;20.460;2023-08-30T18:07:56;14.38;;;7.78;;
65863;SDS011;52639;51.180;20.460;2023-08-30T18:12:04;12.48;;;7.35;;
65863;SDS011;52639;51.180;20.460;2023-08-30T18:16:12;14.13;;;7.55;;
65863;SDS011;52639;51.180;20.460;2023-08-30T18:20:18;17.48;;;8.35;;
65863;SDS011;52639;51.180;20.460;2023-08-30T18:24:28;17.08;;;8.93;;
65863;SDS011;52639;51.180;20.460;2023-08-30T18:28:35;18.88;;;9.70;;
65863;SDS011;52639;51.180;20.460;2023-08-30T18:32:40;17.42;;;8.70;;
65863;SDS011;52639;51.180;20.460;2023-08-30T18:36:47;15.88;;;8.25;;
65863;SDS011;52639;51.180;20.460;2023-08-30T18:40:54;21.27;;;11.43;;
65863;SDS011;52639;51.180;20.460;2023-08-30T18:45:03;26.42;;;12.02;;
65863;SDS011;52639;51.180;20.460;2023-08-30T18:49:09;28.95;;;15.57;;
65863;SDS011;52639;51.180;20.460;2023-08-30T18:53:16;33.33;;;18.05;;
65863;SDS011;52639;51.180;20.460;2023-08-30T18:57:26;26.27;;;13.82;;
65863;SDS011;52639;51.180;20.460;2023-08-30T19:01:35;18.15;;;10.18;;
65863;SDS011;52639;51.180;20.460;2023-08-30T19:05:40;17.40;;;9.50;;
65863;SDS011;52639;51.180;20.460;2023-08-30T19:09:48;14.60;;;8.95;;
65863;SDS011;52639;51.180;20.460;2023-08-30T19:13:54;19.17;;;9.40;;
65863;SDS011;52639;51.180;20.460;2023-08-30T19:18:06;14.88;;;8.68;;
65863;SDS011;52639;51.180;20.460;2023-08-30T19:22:14;14.80;;;8.27;;
65863;SDS011;52639;51.180;20.460;2023-08-30T19:26:22;12.60;;;7.65;;
65863;SDS011;52639;51.180;20.460;2023-08-30T19:30:31;18.40;;;7.53;;
65863;SDS011;52639;51.180;20.460;2023-08-30T19:34:46;13.32;;;7.80;;
65863;SDS011;52639;51.180;20.460;2023-08-30T19:54:27;15.07;;;7.63;;
65863;SDS011;52639;51.180;20.460;2023-08-30T19:58:35;13.48;;;7.60;;
65863;SDS011;52639;51.180;20.460;2023-08-30T20:02:44;15.13;;;7.68;;
65863;SDS011;52639;51.180;20.460;2023-08-30T20:06:50;18.98;;;7.90;;
65863;SDS011;52639;51.180;20.460;2023-08-30T20:11:02;12.20;;;7.35;;
65863;SDS011;52639;51.180;20.460;2023-08-30T20:23:50;11.63;;;7.35;;
65863;SDS011;52639;51.180;20.460;2023-08-30T20:33:06;12.13;;;7.15;;
65863;SDS011;52639;51.180;20.460;2023-08-30T20:37:10;13.60;;;6.95;;
65863;SDS011;52639;51.180;20.460;2023-08-30T20:41:15;10.60;;;6.78;;
65863;SDS011;52639;51.180;20.460;2023-08-30T20:45:22;9.15;;;6.18;;
65863;SDS011;52639;51.180;20.460;2023-08-30T20:49:32;13.70;;;5.78;;
65863;SDS011;52639;51.180;20.460;2023-08-30T20:53:37;8.65;;;5.65;;
65863;SDS011;52639;51.180;20.460;2023-08-30T20:57:43;9.45;;;4.97;;
65863;SDS011;52639;51.180;20.460;2023-08-30T21:01:47;8.45;;;5.28;;
65863;SDS011;52639;51.180;20.460;2023-08-30T21:05:52;9.55;;;5.30;;
65863;SDS011;52639;51.180;20.460;2023-08-30T21:09:55;7.80;;;5.15;;
65863;SDS011;52639;51.180;20.460;2023-08-30T21:13:58;8.95;;;5.53;;
65863;SDS011;52639;51.180;20.460;2023-08-30T21:18:01;7.57;;;5.35;;
65863;SDS011;52639;51.180;20.460;2023-08-30T21:22:08;9.10;;;5.22;;
65863;SDS011;52639;51.180;20.460;2023-08-30T21:26:11;7.68;;;5.03;;
65863;SDS011;52639;51.180;20.460;2023-08-30T21:30:15;8.50;;;5.40;;
65863;SDS011;52639;51.180;20.460;2023-08-30T21:34:18;9.07;;;5.88;;
65863;SDS011;52639;51.180;20.460;2023-08-30T21:38:23;8.10;;;4.90;;
65863;SDS011;52639;51.180;20.460;2023-08-30T21:42:27;7.05;;;4.82;;
65863;SDS011;52639;51.180;20.460;2023-08-30T21:46:30;11.57;;;5.15;;
65863;SDS011;52639;51.180;20.460;2023-08-30T21:50:36;8.35;;;5.32;;
65863;SDS011;52639;51.180;20.460;2023-08-30T21:54:42;9.93;;;4.93;;
65863;SDS011;52639;51.180;20.460;2023-08-30T21:58:45;11.35;;;5.38;;
65863;SDS011;52639;51.180;20.460;2023-08-30T22:02:50;11.77;;;5.45;;
65863;SDS011;52639;51.180;20.460;2023-08-30T22:06:53;11.18;;;6.63;;
65863;SDS011;52639;51.180;20.460;2023-08-30T22:11:05;10.25;;;5.55;;
65863;SDS011;52639;51.180;20.460;2023-08-30T22:19:14;8.07;;;5.18;;
65863;SDS011;52639;51.180;20.460;2023-08-30T22:23:18;6.70;;;5.00;;
65863;SDS011;52639;51.180;20.460;2023-08-30T22:27:23;10.70;;;5.55;;
65863;SDS011;52639;51.180;20.460;2023-08-30T22:31:26;11.50;;;5.15;;
65863;SDS011;52639;51.180;20.460;2023-08-30T22:35:29;7.07;;;4.50;;
65863;SDS011;52639;51.180;20.460;2023-08-30T22:39:34;6.78;;;5.18;;
65863;SDS011;52639;51.180;20.460;2023-08-30T22:43:38;8.55;;;5.32;;
65863;SDS011;52639;51.180;20.460;2023-08-30T22:47:41;10.77;;;5.15;;
65863;SDS011;52639;51.180;20.460;2023-08-30T22:51:47;6.47;;;4.85;;
65863;SDS011;52639;51.180;20.460;2023-08-30T22:55:50;9.55;;;5.10;;
65863;SDS011;52639;51.180;20.460;2023-08-30T22:59:55;9.32;;;5.38;;
65863;SDS011;52639;51.180;20.460;2023-08-30T23:03:58;10.40;;;5.15;;
65863;SDS011;52639;51.180;20.460;2023-08-30T23:08:01;14.77;;;5.75;;
65863;SDS011;52639;51.180;20.460;2023-08-30T23:12:05;9.27;;;5.13;;
65863;SDS011;52639;51.180;20.460;2023-08-30T23:16:11;10.77;;;5.95;;
65863;SDS011;52639;51.180;20.460;2023-08-30T23:45:32;7.82;;;4.90;;
65863;SDS011;52639;51.180;20.460;2023-08-30T23:49:35;8.65;;;4.97;;
65863;SDS011;52639;51.180;20.460;2023-08-30T23:53:38;7.57;;;5.28;;
65863;SDS011;52639;51.180;20.460;2023-08-30T23:57:49;8.15;;;5.35;;
